createdAt,value
2018-03-21T00:01:11.285Z,99050.59
2018-03-21T00:03:38.841Z,99049.11
2018-03-21T00:06:06.305Z,99051.92
2018-03-21T00:08:33.759Z,99058.23
2018-03-21T00:11:01.228Z,99063.98
2018-03-21T00:13:28.699Z,99068.95
2018-03-21T00:15:56.141Z,99071.45
2018-03-21T00:18:23.591Z,99071.69
2018-03-21T00:20:51.054Z,99074.94
2018-03-21T00:23:18.502Z,99076.09
2018-03-21T00:25:45.957Z,99079.88
2018-03-21T00:28:13.435Z,99077.98
2018-03-21T00:30:40.887Z,99081.36
2018-03-21T00:33:08.346Z,99086.95
2018-03-21T00:35:35.813Z,99083.44
2018-03-21T00:38:03.258Z,99086.28
2018-03-21T00:40:30.739Z,99087.51
2018-03-21T00:42:58.173Z,99094.34
2018-03-21T00:45:25.618Z,99096.84
2018-03-21T00:47:53.061Z,99105.33
2018-03-21T00:50:20.546Z,99104.48
2018-03-21T00:52:48.083Z,99107.35
2018-03-21T00:55:15.532Z,99103.81
2018-03-21T00:57:42.997Z,99110.64
2018-03-21T01:00:10.453Z,99111.86
2018-03-21T01:02:38.015Z,99108.67
2018-03-21T01:05:05.470Z,99111.16
2018-03-21T01:07:33.007Z,99111.87
2018-03-21T01:10:00.492Z,99123.39
2018-03-21T01:12:27.929Z,99120.34
2018-03-21T01:14:55.382Z,99118.63
2018-03-21T01:17:22.916Z,99116.83
2018-03-21T01:19:56.414Z,99117.67
2018-03-21T01:22:24.296Z,99116.25
2018-03-21T01:24:51.752Z,99117.08
2018-03-21T01:27:19.203Z,99118.02
2018-03-21T01:29:46.644Z,99116.03
2018-03-21T01:32:14.089Z,99109.95
2018-03-21T01:34:41.661Z,99123.10
2018-03-21T01:37:09.177Z,99108.72
2018-03-21T01:39:36.631Z,99115.86
2018-03-21T01:42:05.194Z,99113.22
2018-03-21T01:44:32.651Z,99116.55
2018-03-21T01:47:00.138Z,99112.58
2018-03-21T01:49:27.585Z,99120.53
2018-03-21T01:51:55.074Z,99115.78
2018-03-21T01:54:23.266Z,99114.84
2018-03-21T01:56:50.724Z,99119.11
2018-03-21T01:59:18.197Z,99112.49
2018-03-21T02:01:45.643Z,99122.75
2018-03-21T02:04:13.144Z,99120.67
2018-03-21T02:06:40.613Z,99116.29
2018-03-21T02:09:08.134Z,99123.08
2018-03-21T02:11:35.574Z,99115.72
2018-03-21T02:14:03.033Z,99116.10
2018-03-21T02:16:30.484Z,99121.63
2018-03-21T02:18:57.934Z,99118.06
2018-03-21T02:21:25.373Z,99123.98
2018-03-21T02:23:52.832Z,99129.05
2018-03-21T02:26:20.277Z,99120.48
2018-03-21T02:28:48.161Z,99126.38
2018-03-21T02:31:15.634Z,99121.22
2018-03-21T02:33:43.090Z,99120.81
2018-03-21T02:36:10.586Z,99127.59
2018-03-21T02:38:38.035Z,99125.91
2018-03-21T02:41:05.500Z,99128.73
2018-03-21T02:43:32.968Z,99139.86
2018-03-21T02:46:00.422Z,99136.58
2018-03-21T02:48:27.897Z,99133.86
2018-03-21T02:50:55.340Z,99138.82
2018-03-21T02:53:22.793Z,99140.53
2018-03-21T02:55:50.247Z,99141.67
2018-03-21T02:58:17.710Z,99144.35
2018-03-21T03:00:45.163Z,99145.95
2018-03-21T03:03:12.810Z,99140.83
2018-03-21T03:05:40.264Z,99143.94
2018-03-21T03:08:07.709Z,99142.75
2018-03-21T03:10:35.229Z,99142.89
2018-03-21T03:13:02.681Z,99144.96
2018-03-21T03:15:30.171Z,99145.78
2018-03-21T03:17:57.619Z,99148.22
2018-03-21T03:20:25.072Z,99151.63
2018-03-21T03:22:52.528Z,99152.94
2018-03-21T03:25:20.034Z,99156.31
2018-03-21T03:27:47.491Z,99160.92
2018-03-21T03:30:14.956Z,99160.42
2018-03-21T03:32:42.469Z,99161.09
2018-03-21T03:35:09.918Z,99161.52
2018-03-21T03:37:37.395Z,99157.59
2018-03-21T03:40:04.834Z,99162.25
2018-03-21T03:42:32.286Z,99157.16
2018-03-21T03:44:59.796Z,99160.47
2018-03-21T03:47:27.271Z,99158.20
2018-03-21T03:49:54.740Z,99160.66
2018-03-21T03:52:22.210Z,99162.53
2018-03-21T03:54:49.701Z,99161.07
2018-03-21T03:57:17.151Z,99162.23
2018-03-21T03:59:44.604Z,99157.58
2018-03-21T04:02:12.058Z,99153.17
2018-03-21T04:04:39.530Z,99153.33
2018-03-21T04:07:06.984Z,99156.61
2018-03-21T04:09:34.485Z,99155.98
2018-03-21T04:12:01.936Z,99161.14
2018-03-21T04:14:29.418Z,99160.61
2018-03-21T04:16:56.933Z,99161.42
2018-03-21T04:19:24.393Z,99160.48
2018-03-21T04:21:51.883Z,99170.44
2018-03-21T04:24:19.335Z,99164.52
2018-03-21T04:26:46.798Z,99164.92
2018-03-21T04:29:14.255Z,99164.83
2018-03-21T04:31:41.731Z,99162.80
2018-03-21T04:34:09.203Z,99163.23
2018-03-21T04:36:36.786Z,99163.05
2018-03-21T04:39:04.278Z,99162.58
2018-03-21T04:41:31.726Z,99166.07
2018-03-21T04:43:59.174Z,99168.32
2018-03-21T04:46:27.967Z,99169.10
2018-03-21T04:48:55.416Z,99175.59
2018-03-21T04:51:22.856Z,99176.00
2018-03-21T04:53:50.310Z,99176.84
2018-03-21T04:56:17.758Z,99174.44
2018-03-21T04:58:45.252Z,99173.41
2018-03-21T05:01:12.706Z,99176.99
2018-03-21T05:03:40.202Z,99171.47
2018-03-21T05:06:07.650Z,99171.44
2018-03-21T05:08:35.121Z,99172.69
2018-03-21T05:11:02.938Z,99173.94
2018-03-21T05:13:30.541Z,99174.44
2018-03-21T05:15:58.218Z,99180.27
2018-03-21T05:18:25.794Z,99180.34
2018-03-21T05:20:53.266Z,99183.73
2018-03-21T05:23:20.711Z,99182.12
2018-03-21T05:25:48.170Z,99199.16
2018-03-21T05:28:15.616Z,99191.17
2018-03-21T05:30:43.092Z,99194.77
2018-03-21T05:33:10.529Z,99202.61
2018-03-21T05:35:37.994Z,99203.88
2018-03-21T05:38:05.446Z,99203.55
2018-03-21T05:40:32.897Z,99204.45
2018-03-21T05:43:00.362Z,99210.31
2018-03-21T05:45:27.851Z,99214.34
2018-03-21T05:47:55.326Z,99214.79
2018-03-21T05:50:22.791Z,99221.22
2018-03-21T05:52:50.277Z,99226.00
2018-03-21T05:55:18.678Z,99233.47
2018-03-21T05:57:46.130Z,99232.94
2018-03-21T06:00:13.576Z,99231.62
2018-03-21T06:02:41.627Z,99233.64
2018-03-21T06:05:09.274Z,99234.30
2018-03-21T06:07:36.742Z,99236.41
2018-03-21T06:10:04.204Z,99238.27
2018-03-21T06:12:31.666Z,99241.91
2018-03-21T06:14:59.152Z,99242.95
2018-03-21T06:17:26.588Z,99244.75
2018-03-21T06:19:54.046Z,99254.00
2018-03-21T06:22:21.494Z,99263.13
2018-03-21T06:24:48.996Z,99263.23
2018-03-21T06:27:16.741Z,99265.61
2018-03-21T06:29:44.186Z,99262.90
2018-03-21T06:32:11.714Z,99268.47
2018-03-21T06:34:39.163Z,99272.42
2018-03-21T06:37:07.665Z,99270.91
2018-03-21T06:39:35.317Z,99278.82
2018-03-21T06:42:02.784Z,99282.46
2018-03-21T06:44:30.356Z,99288.34
2018-03-21T06:46:57.824Z,99295.93
2018-03-21T06:49:25.269Z,99288.47
2018-03-21T06:51:52.720Z,99298.47
2018-03-21T06:54:20.173Z,99295.35
2018-03-21T06:56:47.625Z,99303.64
2018-03-21T06:59:15.094Z,99304.99
2018-03-21T07:01:42.559Z,99309.42
2018-03-21T07:04:10.005Z,99308.69
2018-03-21T07:06:37.469Z,99307.83
2018-03-21T07:09:04.929Z,99307.51
2018-03-21T07:11:32.390Z,99315.24
2018-03-21T07:14:13.205Z,99320.67
2018-03-21T07:16:50.982Z,99318.78
2018-03-21T07:19:18.510Z,99324.82
2018-03-21T07:21:46.122Z,99323.75
2018-03-21T07:24:13.584Z,99318.03
2018-03-21T07:26:41.032Z,99324.19
2018-03-21T07:29:08.575Z,99319.48
2018-03-21T07:31:36.039Z,99325.50
2018-03-21T07:34:03.493Z,99327.86
2018-03-21T07:36:30.971Z,99333.65
2018-03-21T07:38:58.409Z,99339.72
2018-03-21T07:41:25.862Z,99334.70
2018-03-21T07:43:53.322Z,99339.02
2018-03-21T07:46:20.765Z,99337.59
2018-03-21T07:48:48.214Z,99350.39
2018-03-21T07:51:15.665Z,99342.48
2018-03-21T07:53:43.117Z,99345.58
2018-03-21T07:56:10.562Z,99345.00
2018-03-21T07:58:38.013Z,99349.27
2018-03-21T08:01:05.454Z,99346.92
2018-03-21T08:03:32.917Z,99354.44
2018-03-21T08:06:00.381Z,99353.61
2018-03-21T08:08:34.061Z,99366.21
2018-03-21T08:11:01.573Z,99369.70
2018-03-21T08:13:29.030Z,99369.33
2018-03-21T08:15:56.487Z,99372.05
2018-03-21T08:18:23.950Z,99368.19
2018-03-21T08:20:51.637Z,99376.09
2018-03-21T08:23:19.124Z,99380.71
2018-03-21T08:25:46.602Z,99371.94
2018-03-21T08:28:14.054Z,99377.36
2018-03-21T08:30:41.533Z,99386.56
2018-03-21T08:33:09.013Z,99381.38
2018-03-21T08:35:36.450Z,99381.42
2018-03-21T08:38:03.936Z,99388.84
2018-03-21T08:40:31.449Z,99387.24
2018-03-21T08:42:58.894Z,99375.20
2018-03-21T08:45:26.331Z,99381.31
2018-03-21T08:47:53.809Z,99381.89
2018-03-21T08:50:21.277Z,99386.70
2018-03-21T08:52:48.738Z,99383.23
2018-03-21T08:55:16.211Z,99382.40
2018-03-21T08:57:43.652Z,99377.64
2018-03-21T09:00:11.090Z,99384.16
2018-03-21T09:02:38.555Z,99384.13
2018-03-21T09:05:06.017Z,99383.73
2018-03-21T09:07:33.471Z,99378.55
2018-03-21T09:10:00.920Z,99382.44
2018-03-21T09:12:28.378Z,99377.61
2018-03-21T09:14:55.825Z,99376.27
2018-03-21T09:17:23.271Z,99377.97
2018-03-21T09:19:50.712Z,99386.03
2018-03-21T09:22:18.181Z,99378.11
2018-03-21T09:24:45.610Z,99383.94
2018-03-21T09:27:13.052Z,99381.55
2018-03-21T09:29:40.497Z,99383.72
2018-03-21T09:32:07.970Z,99386.10
2018-03-21T09:34:35.463Z,99390.13
2018-03-21T09:37:02.898Z,99391.56
2018-03-21T09:39:30.411Z,99390.86
2018-03-21T09:41:57.874Z,99385.94
2018-03-21T09:44:25.377Z,99388.11
2018-03-21T09:46:52.789Z,99391.28
2018-03-21T09:49:20.236Z,99390.48
2018-03-21T09:51:47.694Z,99386.80
2018-03-21T09:54:15.167Z,99393.03
2018-03-21T09:56:42.630Z,99384.88
2018-03-21T09:59:10.165Z,99385.98
2018-03-21T10:01:37.637Z,99386.39
2018-03-21T10:04:05.090Z,99378.81
2018-03-21T10:06:32.575Z,99366.06
2018-03-21T10:09:00.054Z,99374.55
2018-03-21T10:11:27.484Z,99369.11
2018-03-21T10:13:54.929Z,99366.27
2018-03-21T10:16:22.375Z,99362.66
2018-03-21T10:18:49.824Z,99368.20
2018-03-21T10:21:17.302Z,99366.92
2018-03-21T10:23:44.749Z,99371.42
2018-03-21T10:26:12.276Z,99365.16
2018-03-21T10:28:39.744Z,99360.83
2018-03-21T10:31:07.271Z,99367.84
2018-03-21T10:33:34.717Z,99365.11
2018-03-21T10:36:02.218Z,99358.22
2018-03-21T10:38:29.700Z,99359.74
2018-03-21T10:40:57.214Z,99371.23
2018-03-21T10:43:24.702Z,99368.02
2018-03-21T10:45:52.155Z,99358.72
2018-03-21T10:48:19.650Z,99358.81
2018-03-21T10:50:47.117Z,99363.31
2018-03-21T10:53:14.606Z,99360.11
2018-03-21T10:55:43.909Z,99366.23
2018-03-21T10:58:13.179Z,99364.22
2018-03-21T11:00:42.902Z,99366.34
2018-03-21T11:03:12.213Z,99358.52
2018-03-21T11:05:39.671Z,99360.71
2018-03-21T11:08:07.149Z,99360.73
2018-03-21T11:10:34.858Z,99364.05
2018-03-21T11:13:02.316Z,99357.47
2018-03-21T11:15:29.773Z,99352.63
2018-03-21T11:17:57.256Z,99352.14
2018-03-21T11:20:24.701Z,99352.09
2018-03-21T11:22:52.153Z,99349.38
2018-03-21T11:25:19.846Z,99348.38
2018-03-21T11:27:47.289Z,99345.62
2018-03-21T11:30:14.752Z,99345.29
2018-03-21T11:32:42.253Z,99350.30
2018-03-21T11:35:09.725Z,99347.72
2018-03-21T11:37:37.173Z,99349.26
2018-03-21T11:40:04.623Z,99339.30
2018-03-21T11:42:32.080Z,99336.39
2018-03-21T11:44:59.556Z,99339.69
2018-03-21T11:47:27.010Z,99336.77
2018-03-21T11:49:54.493Z,99337.06
2018-03-21T11:52:21.995Z,99335.94
2018-03-21T11:54:49.478Z,99329.70
2018-03-21T11:57:17.041Z,99322.96
2018-03-21T11:59:44.494Z,99328.78
2018-03-21T12:02:12.004Z,99329.31
2018-03-21T12:04:39.479Z,99326.70
2018-03-21T12:07:06.962Z,99325.52
2018-03-21T12:09:34.547Z,99315.09
2018-03-21T12:12:02.001Z,99313.89
2018-03-21T12:14:29.466Z,99313.19
2018-03-21T12:16:56.906Z,99307.41
2018-03-21T12:19:24.343Z,99296.15
2018-03-21T12:21:51.794Z,99295.74
2018-03-21T12:24:19.291Z,99291.05
2018-03-21T12:26:46.755Z,99287.61
2018-03-21T12:29:20.585Z,99281.27
2018-03-21T12:31:48.073Z,99292.20
2018-03-21T12:34:15.563Z,99289.22
2018-03-21T12:36:43.013Z,99298.31
2018-03-21T12:39:10.463Z,99288.26
2018-03-21T12:41:37.915Z,99279.25
2018-03-21T12:44:05.378Z,99266.16
2018-03-21T12:46:32.835Z,99273.87
2018-03-21T12:49:00.331Z,99268.15
2018-03-21T12:51:27.777Z,99264.41
2018-03-21T12:53:55.236Z,99266.70
2018-03-21T12:56:22.764Z,99278.98
2018-03-21T12:58:50.126Z,99281.13
2018-03-21T13:01:17.801Z,99279.81
2018-03-21T13:03:45.233Z,99280.20
2018-03-21T13:06:12.965Z,99278.84
2018-03-21T13:08:40.487Z,99261.41
2018-03-21T13:11:08.114Z,99257.86
2018-03-21T13:13:35.617Z,99260.97
2018-03-21T13:16:03.071Z,99257.83
2018-03-21T13:18:32.549Z,99261.85
2018-03-21T13:21:00.023Z,99260.48
2018-03-21T13:23:27.489Z,99262.52
2018-03-21T13:25:54.933Z,99255.63
2018-03-21T13:28:22.382Z,99253.05
2018-03-21T13:30:49.858Z,99253.45
2018-03-21T13:33:17.334Z,99249.34
2018-03-21T13:35:45.618Z,99251.94
2018-03-21T13:38:13.276Z,99255.75
2018-03-21T13:40:41.643Z,99250.67
2018-03-21T13:43:09.358Z,99249.62
2018-03-21T13:45:36.885Z,99238.09
2018-03-21T13:48:04.321Z,99245.42
2018-03-21T13:50:34.222Z,99245.97
2018-03-21T13:53:01.695Z,99240.12
2018-03-21T13:55:29.137Z,99250.63
2018-03-21T13:57:56.656Z,99245.51
2018-03-21T14:00:24.336Z,99248.48
2018-03-21T14:02:51.770Z,99247.15
2018-03-21T14:05:19.376Z,99248.59
2018-03-21T14:07:46.851Z,99245.60
2018-03-21T14:10:14.357Z,99251.03
2018-03-21T14:12:41.799Z,99245.75
2018-03-21T14:15:09.574Z,99246.13
2018-03-21T14:17:37.036Z,99239.66
2018-03-21T14:20:04.506Z,99244.00
2018-03-21T14:22:32.034Z,99250.28
2018-03-21T14:24:59.509Z,99244.20
2018-03-21T14:27:26.968Z,99240.16
2018-03-21T14:29:54.458Z,99242.62
2018-03-21T14:32:21.907Z,99242.48
2018-03-21T14:34:49.506Z,99243.19
2018-03-21T14:37:16.958Z,99244.63
2018-03-21T14:39:44.423Z,99243.94
2018-03-21T14:42:11.929Z,99240.55
2018-03-21T14:44:39.406Z,99240.36
2018-03-21T14:47:06.839Z,99231.82
2018-03-21T14:49:34.353Z,99248.25
2018-03-21T14:52:01.764Z,99241.91
2018-03-21T14:54:29.194Z,99240.97
2018-03-21T14:56:56.649Z,99234.45
2018-03-21T14:59:24.079Z,99243.19
2018-03-21T15:01:51.528Z,99242.30
2018-03-21T15:04:18.989Z,99240.63
2018-03-21T15:06:46.464Z,99238.39
2018-03-21T15:09:13.929Z,99243.34
2018-03-21T15:11:41.390Z,99250.37
2018-03-21T15:14:08.816Z,99239.59
2018-03-21T15:16:36.276Z,99251.55
2018-03-21T15:19:03.741Z,99240.35
2018-03-21T15:21:31.186Z,99232.08
2018-03-21T15:23:58.628Z,99231.76
2018-03-21T15:26:26.103Z,99230.71
2018-03-21T15:28:53.564Z,99220.20
2018-03-21T15:31:21.894Z,99209.61
2018-03-21T15:33:49.398Z,99214.34
2018-03-21T15:36:16.855Z,99216.69
2018-03-21T15:38:44.310Z,99228.38
2018-03-21T15:41:11.759Z,99205.99
2018-03-21T15:43:39.221Z,99219.41
2018-03-21T15:46:06.727Z,99222.25
2018-03-21T15:48:34.168Z,99217.38
2018-03-21T15:51:01.598Z,99217.91
2018-03-21T15:53:29.045Z,99217.97
2018-03-21T15:55:56.477Z,99216.00
2018-03-21T15:58:23.947Z,99218.45
2018-03-21T16:00:51.400Z,99229.16
2018-03-21T16:03:18.873Z,99231.66
2018-03-21T16:05:46.322Z,99237.42
2018-03-21T16:08:13.833Z,99225.03
2018-03-21T16:10:41.273Z,99223.50
2018-03-21T16:13:08.712Z,99225.23
2018-03-21T16:15:36.154Z,99227.74
2018-03-21T16:18:03.627Z,99227.44
2018-03-21T16:20:31.065Z,99234.63
2018-03-21T16:22:58.507Z,99234.78
2018-03-21T16:25:25.940Z,99250.98
2018-03-21T16:27:53.395Z,99260.39
2018-03-21T16:30:20.858Z,99256.23
2018-03-21T16:32:48.404Z,99264.09
2018-03-21T16:35:15.847Z,99259.80
2018-03-21T16:37:43.302Z,99265.84
2018-03-21T16:40:10.769Z,99270.62
2018-03-21T16:42:38.215Z,99268.54
2018-03-21T16:45:05.653Z,99276.47
2018-03-21T16:47:33.111Z,99276.05
2018-03-21T16:50:00.585Z,99277.04
2018-03-21T16:52:28.030Z,99277.26
2018-03-21T16:54:55.539Z,99280.46
2018-03-21T16:57:22.974Z,99275.06
2018-03-21T16:59:50.425Z,99279.48
2018-03-21T17:02:17.864Z,99287.69
2018-03-21T17:04:45.333Z,99286.53
2018-03-21T17:07:12.787Z,99292.98
2018-03-21T17:09:40.273Z,99288.73
2018-03-21T17:12:07.700Z,99293.75
2018-03-21T17:14:35.175Z,99286.36
2018-03-21T17:17:02.668Z,99289.67
2018-03-21T17:19:30.134Z,99295.51
2018-03-21T17:21:57.693Z,99297.88
2018-03-21T17:24:25.247Z,99300.70
2018-03-21T17:26:52.642Z,99300.73
2018-03-21T17:29:20.111Z,99300.86
2018-03-21T17:31:47.719Z,99303.59
2018-03-21T17:34:15.175Z,99306.30
2018-03-21T17:36:42.654Z,99308.95
2018-03-21T17:39:10.094Z,99307.66
2018-03-21T17:41:37.562Z,99308.97
2018-03-21T17:44:05.110Z,99306.75
2018-03-21T17:46:32.574Z,99314.94
2018-03-21T17:49:00.053Z,99315.73
2018-03-21T17:51:27.514Z,99325.14
2018-03-21T17:53:54.953Z,99319.46
2018-03-21T17:56:22.426Z,99317.22
2018-03-21T17:58:49.916Z,99318.89
2018-03-21T18:01:17.355Z,99321.36
2018-03-21T18:03:44.790Z,99322.11
2018-03-21T18:06:12.242Z,99328.06
2018-03-21T18:08:39.728Z,99338.31
2018-03-21T18:11:07.194Z,99337.37
2018-03-21T18:13:34.634Z,99333.83
2018-03-21T18:16:02.114Z,99341.44
2018-03-21T18:18:29.567Z,99329.73
2018-03-21T18:20:57.033Z,99335.70
2018-03-21T18:23:26.018Z,99340.44
2018-03-21T18:25:53.748Z,99345.12
2018-03-21T18:28:21.214Z,99347.13
2018-03-21T18:30:48.661Z,99341.80
2018-03-21T18:33:16.153Z,99348.59
2018-03-21T18:35:44.408Z,99351.08
2018-03-21T18:38:11.900Z,99346.66
2018-03-21T18:40:40.175Z,99352.95
2018-03-21T18:43:07.836Z,99345.95
2018-03-21T18:45:35.309Z,99343.76
2018-03-21T18:48:02.750Z,99346.75
2018-03-21T18:50:30.711Z,99338.99
2018-03-21T18:52:58.148Z,99342.33
2018-03-21T18:55:25.653Z,99343.91
2018-03-21T18:57:53.108Z,99340.38
2018-03-21T19:00:20.568Z,99341.62
2018-03-21T19:02:48.020Z,99339.38
2018-03-21T19:05:15.643Z,99333.30
2018-03-21T19:07:43.122Z,99339.27
2018-03-21T19:10:10.707Z,99340.11
2018-03-21T19:12:39.256Z,99339.22
2018-03-21T19:15:06.729Z,99340.45
2018-03-21T19:17:34.216Z,99337.70
2018-03-21T19:20:01.711Z,99336.09
2018-03-21T19:22:29.461Z,99336.48
2018-03-21T19:24:56.924Z,99339.44
2018-03-21T19:27:25.472Z,99336.01
2018-03-21T19:29:52.941Z,99330.45
2018-03-21T19:32:20.403Z,99325.59
2018-03-21T19:34:47.882Z,99322.58
2018-03-21T19:37:15.339Z,99316.50
2018-03-21T19:39:42.927Z,99316.02
2018-03-21T19:42:10.345Z,99317.71
2018-03-21T19:44:37.962Z,99324.56
2018-03-21T19:47:05.459Z,99327.07
2018-03-21T19:49:33.055Z,99322.63
2018-03-21T19:52:00.592Z,99327.70
2018-03-21T19:54:28.601Z,99317.63
2018-03-21T19:56:56.068Z,99323.09
2018-03-21T19:59:23.579Z,99319.14
2018-03-21T20:01:51.057Z,99329.84
2018-03-21T20:04:22.231Z,99328.59
2018-03-21T20:06:49.724Z,99323.41
2018-03-21T20:09:17.292Z,99329.05
2018-03-21T20:11:44.758Z,99323.77
2018-03-21T20:14:12.217Z,99329.21
2018-03-21T20:16:39.687Z,99320.58
2018-03-21T20:19:07.145Z,99324.80
2018-03-21T20:21:34.595Z,99320.81
2018-03-21T20:24:02.052Z,99325.39
2018-03-21T20:26:29.720Z,99321.95
2018-03-21T20:28:57.176Z,99327.12
2018-03-21T20:31:24.650Z,99325.76
2018-03-21T20:33:52.110Z,99317.95
2018-03-21T20:36:19.575Z,99310.67
2018-03-21T20:38:47.094Z,99313.97
2018-03-21T20:41:14.850Z,99318.66
2018-03-21T20:43:42.315Z,99320.80
2018-03-21T20:46:10.206Z,99324.11
2018-03-21T20:48:37.691Z,99321.56
2018-03-21T20:51:05.142Z,99321.09
2018-03-21T20:53:32.638Z,99317.98
2018-03-21T20:56:00.107Z,99322.23
2018-03-21T20:58:27.607Z,99319.98
2018-03-21T21:00:55.103Z,99321.08
2018-03-21T21:03:22.605Z,99316.23
2018-03-21T21:05:50.058Z,99322.53
2018-03-21T21:08:17.503Z,99322.59
2018-03-21T21:10:44.963Z,99320.39
2018-03-21T21:13:12.447Z,99315.20
2018-03-21T21:15:39.885Z,99321.24
2018-03-21T21:18:07.346Z,99320.39
2018-03-21T21:20:34.796Z,99319.06
2018-03-21T21:23:03.009Z,99313.95
2018-03-21T21:25:30.571Z,99309.63
2018-03-21T21:27:58.092Z,99308.72
2018-03-21T21:30:25.579Z,99307.41
2018-03-21T21:32:53.167Z,99314.95
2018-03-21T21:35:20.726Z,99308.00
2018-03-21T21:37:49.236Z,99304.16
2018-03-21T21:40:16.691Z,99299.85
2018-03-21T21:42:44.149Z,99295.03
2018-03-21T21:45:11.614Z,99295.88
2018-03-21T21:47:39.053Z,99290.28
2018-03-21T21:50:06.510Z,99293.58
2018-03-21T21:52:34.008Z,99289.19
2018-03-21T21:55:01.451Z,99278.44
2018-03-21T21:57:28.923Z,99277.92
2018-03-21T21:59:56.402Z,99283.83
2018-03-21T22:02:23.842Z,99285.02
2018-03-21T22:04:51.272Z,99278.60
2018-03-21T22:07:18.881Z,99270.36
2018-03-21T22:09:46.363Z,99270.75
2018-03-21T22:12:29.484Z,99278.45
2018-03-21T22:14:56.917Z,99270.67
2018-03-21T22:17:24.424Z,99266.23
2018-03-21T22:19:51.863Z,99258.12
2018-03-21T22:22:19.349Z,99255.40
2018-03-21T22:24:46.837Z,99263.20
2018-03-21T22:27:14.354Z,99257.55
2018-03-21T22:29:41.938Z,99254.32
2018-03-21T22:32:09.370Z,99252.17
2018-03-21T22:34:36.896Z,99246.41
2018-03-21T22:37:04.370Z,99246.34
2018-03-21T22:39:31.842Z,99248.86
2018-03-21T22:42:05.818Z,99246.70
2018-03-21T22:44:33.537Z,99239.36
2018-03-21T22:47:03.111Z,99232.51
2018-03-21T22:49:35.033Z,99241.93
2018-03-21T22:52:07.464Z,99232.36
2018-03-21T22:54:39.916Z,99236.97
2018-03-21T22:57:07.364Z,99235.20
2018-03-21T22:59:34.834Z,99229.57
2018-03-21T23:02:02.366Z,99231.03
2018-03-21T23:04:29.902Z,99223.06
2018-03-21T23:06:57.342Z,99215.77
2018-03-21T23:09:24.784Z,99212.22
2018-03-21T23:11:52.282Z,99207.69
2018-03-21T23:14:19.858Z,99205.54
2018-03-21T23:16:47.308Z,99205.89
2018-03-21T23:19:14.810Z,99202.07
2018-03-21T23:21:42.413Z,99201.98
2018-03-21T23:24:10.042Z,99200.59
2018-03-21T23:26:37.622Z,99201.97
2018-03-21T23:29:05.085Z,99202.10
2018-03-21T23:31:32.601Z,99206.36
2018-03-21T23:34:00.043Z,99203.41
2018-03-21T23:36:27.643Z,99207.98
2018-03-21T23:38:55.125Z,99201.98
2018-03-21T23:41:22.553Z,99204.77
2018-03-21T23:43:52.535Z,99202.88
2018-03-21T23:46:20.018Z,99197.45
2018-03-21T23:48:47.454Z,99199.91
2018-03-21T23:51:14.902Z,99198.56
2018-03-21T23:53:42.342Z,99199.81
2018-03-21T23:56:09.814Z,99195.52
2018-03-21T23:58:37.257Z,99191.64
